Lewisetta, VA NWLON current weather conditions

sailwx.info

Water temperature 0.6° C

Last reported at 2015-Jan-31 12:36 UTC.
Time now 2015-Jan-31 13:08 UTC

Location: N 37°60' W 076°28'.
View on Google Maps.

See reports from other nearby stations

  
Tides and Currents Weather Stations Pressure Air Temp Water Temp Dewpoint Dewpoint Depression Visibility Wind Speed Wind Dir Waves Ship Positions
date/time (UTC)wind fromknots sea level pressurealtimeterstation pressurevisibilityair tempwater tempwave heightnotes
2015-Jan-31 12:36 0.6
2015-Jan-31 12:30 -5.6 0.6
2015-Jan-31 12:24 -6.1 0.6
2015-Jan-31 12:18 329 14 gusting 19 -6.1 0.6
2015-Jan-31 12:12 -5.6 0.6
2015-Jan-31 12:06 318 13 gusting 18 -6.1 0.6
2015-Jan-31 12:00 315 13 gusting 14 0.6
2015-Jan-31 11:54 -6.1 0.6
2015-Jan-31 11:48 -6.1 0.6
2015-Jan-31 11:30 330 14 gusting 21 0.6
2015-Jan-31 11:24 318 17 gusting 22 0.6
2015-Jan-31 11:18 331 11 gusting 18 0.6
2015-Jan-31 11:12 -6.1 0.6
2015-Jan-31 11:06 327 13 gusting 19 0.6
2015-Jan-31 11:00 -6.1 0.6
2015-Jan-31 10:54 330 14 gusting 21 0.6
2015-Jan-31 10:48 336 13 gusting 17 0.6
2015-Jan-31 10:36 1.1
2015-Jan-31 10:30 -6.1 1.1
2015-Jan-31 10:24 -6.1 1.1
2015-Jan-31 10:18 -5.6 1.1
2015-Jan-31 10:12 316 19 gusting 24 1.1
2015-Jan-31 10:06 322 17 gusting 26 1.1
2015-Jan-31 10:00 -5.6 1.1
2015-Jan-31 09:54 -5.6 1.1
2015-Jan-31 09:48 324 18 gusting 27 -5.6 1.1
2015-Jan-31 09:36 1.1
2015-Jan-31 09:30 -5.6 1.1
2015-Jan-31 09:24 -5.6 1.1
2015-Jan-31 09:18 332 14 gusting 22 -5.6 1.1
2015-Jan-31 09:12 -5.6 1.1
2015-Jan-31 09:06 326 17 gusting 26 1.1
2015-Jan-31 09:00 -5.6 1.1
2015-Jan-31 08:54 -5.6 1.1
2015-Jan-31 08:48 329 16 gusting 23 1.1
2015-Jan-31 08:36 1.1
2015-Jan-31 08:30 -5.6 1.1
2015-Jan-31 08:24 -5.6 1.1
2015-Jan-31 08:18 325 18 gusting 23 1.1
2015-Jan-31 08:12 329 16 gusting 25 1.1
2015-Jan-31 08:06 -5.6 1.1
2015-Jan-31 08:00 320 21 gusting 26 1.1
2015-Jan-31 07:54 -5.6 1.1
2015-Jan-31 07:48 326 20 gusting 29 -5.0 1.1
2015-Jan-31 07:36 330 20 gusting 26 1.1
2015-Jan-31 07:30 -5.0 1.1
2015-Jan-31 07:24 329 19 gusting 26 1.1
2015-Jan-31 07:18 319 18 gusting 22 1.1
2015-Jan-31 07:12 -5.0 1.1
2015-Jan-31 07:06 327 19 gusting 26 -5.0 1.1
2015-Jan-31 07:00 322 19 gusting 24 1.1
2015-Jan-31 06:54 321 18 gusting 22 1.7
2015-Jan-31 06:48 322 19 gusting 30 1.7
2015-Jan-31 06:36 -5.0 1.1
2015-Jan-31 06:30 322 22 gusting 29 1.1
2015-Jan-31 06:24 331 17 gusting 23 1.1
2015-Jan-31 06:18 327 19 gusting 29 1.7
2015-Jan-31 06:12 323 15 gusting 26 1.7
2015-Jan-31 06:06 322 19 gusting 26 1.7
2015-Jan-31 06:00 328 14 gusting 21 1.7
2015-Jan-31 05:54 -4.4 1.7
2015-Jan-31 05:48 324 15 gusting 20 -4.4 1.7
2015-Jan-31 05:36 320 14 gusting 19 1.7
2015-Jan-31 05:30 325 16 gusting 21 1.7
2015-Jan-31 05:24 -4.4 1.7
2015-Jan-31 05:18 -4.4 1.7
2015-Jan-31 05:12 326 15 gusting 21 1.7
2015-Jan-31 05:06 330 18 gusting 25 1.7
2015-Jan-31 05:00 325 15 gusting 20 1.7
2015-Jan-31 04:54 319 19 gusting 26 1.7
2015-Jan-31 04:48 -4.4 1.7
2015-Jan-31 04:36 -3.9 1.7
2015-Jan-31 04:30 325 16 gusting 23 1.7
2015-Jan-31 04:24 -3.9 1.7
2015-Jan-31 04:18 330 21 gusting 29 -3.9 1.7
2015-Jan-31 04:12 -3.9 2.2
2015-Jan-31 04:06 324 20 gusting 29 -3.9 2.2
2015-Jan-31 04:00 321 18 gusting 25 2.2
2015-Jan-31 03:54 330 19 gusting 30 2.2
2015-Jan-31 03:48 320 24 gusting 29 1.7
2015-Jan-31 03:30 318 24 gusting 30 1.7
2015-Jan-31 03:24 -3.3 2.2
2015-Jan-31 03:18 317 21 gusting 31 2.2
2015-Jan-31 03:12 328 23 gusting 30 2.2
2015-Jan-31 03:06 324 24 gusting 34 -2.8 2.2
2015-Jan-31 03:00 -3.3 2.2
2015-Jan-31 02:54 324 24 gusting 32 2.2
2015-Jan-31 02:48 324 26 gusting 33 2.2
2015-Jan-31 02:36 2.2
2015-Jan-31 02:30 -2.2 2.2
2015-Jan-31 02:24 -2.2 2.2
2015-Jan-31 02:18 320 23 gusting 31 -2.2 2.2
2015-Jan-31 02:12 321 23 gusting 31 2.2
2015-Jan-31 02:06 317 20 gusting 27 2.2
2015-Jan-31 02:00 318 22 gusting 30 2.2
2015-Jan-31 01:54 319 19 gusting 28 2.2
2015-Jan-31 01:48 322 19 gusting 28 2.2
2015-Jan-31 01:30 325 24 gusting 29 2.2
2015-Jan-31 01:24 -1.1 2.2
2015-Jan-31 01:18 321 24 gusting 39 2.2
2015-Jan-31 01:12 319 24 gusting 35 2.2
2015-Jan-31 01:06 322 24 gusting 32 2.2
2015-Jan-31 01:00 -1.1 2.2
2015-Jan-31 00:54 -1.1 2.2
2015-Jan-31 00:48 318 21 gusting 27 2.2
2015-Jan-31 00:30 317 22 gusting 28 2.2
2015-Jan-31 00:24 317 19 gusting 24 2.2
2015-Jan-31 00:18 325 21 gusting 27 2.2
2015-Jan-31 00:12 326 21 gusting 29 2.2
2015-Jan-31 00:06 -0.0 2.2
2015-Jan-31 00:00 328 17 gusting 26 2.2
2015-Jan-30 23:48 2.8
2015-Jan-30 23:36 2.8
2015-Jan-30 23:30 0.6 2.8
2015-Jan-30 23:24 0.6 2.8
2015-Jan-30 23:18 331 22 gusting 31 0.6 2.8
2015-Jan-30 23:12 1.1 2.8
2015-Jan-30 23:06 332 18 gusting 30 2.8
2015-Jan-30 23:00 332 13 gusting 26 2.8
2015-Jan-30 22:54 1.1 2.8
2015-Jan-30 22:48 333 17 gusting 24 2.8
2015-Jan-30 22:30 326 21 gusting 30 2.8
2015-Jan-30 22:24 320 23 gusting 33 2.8
2015-Jan-30 22:18 315 20 gusting 28 1.7 2.8
2015-Jan-30 22:12 326 19 gusting 24 2.8
2015-Jan-30 22:06 322 19 gusting 25 2.2 2.8
2015-Jan-30 22:00 333 13 gusting 19 2.8
2015-Jan-30 21:54 2.2 2.8
2015-Jan-30 21:48 332 17 gusting 26 2.2 2.8
2015-Jan-30 21:30 326 17 gusting 25 2.8
2015-Jan-30 21:24 325 17 gusting 22 2.8
2015-Jan-30 21:18 324 16 gusting 26 2.8 2.8
2015-Jan-30 21:12 317 19 gusting 27 2.8
2015-Jan-30 21:06 322 23 gusting 31 2.8
2015-Jan-30 21:00 325 19 gusting 25 2.8
2015-Jan-30 20:54 3.3 2.8
2015-Jan-30 20:48 3.3 2.8
2015-Jan-30 20:30 319 19 gusting 26 2.8
2015-Jan-30 20:24 3.3 2.8
2015-Jan-30 20:18 318 25 gusting 31 3.3 2.8
2015-Jan-30 20:12 319 25 gusting 33 2.8
2015-Jan-30 20:06 326 25 gusting 32 3.3 2.8
2015-Jan-30 20:00 3.3 2.8
2015-Jan-30 19:54 3.3 2.8
2015-Jan-30 19:48 331 19 gusting 30 3.9 2.8
2015-Jan-30 19:36 3.3 2.8
2015-Jan-30 19:30 3.9 2.8
2015-Jan-30 19:24 327 20 gusting 31 2.8
2015-Jan-30 19:18 3.9 2.8
2015-Jan-30 19:12 3.9 2.8
2015-Jan-30 19:06 314 20 gusting 26 3.3 2.8
2015-Jan-30 19:00 3.3 2.8
2015-Jan-30 18:54 325 18 gusting 26 2.8
2015-Jan-30 18:48 326 18 gusting 25 3.3 2.8
2015-Jan-30 18:36 340 19 gusting 29 2.8
2015-Jan-30 18:30 3.9 2.8
2015-Jan-30 18:24 4.4 2.8
2015-Jan-30 18:18 335 18 gusting 29 3.9 2.8
2015-Jan-30 18:12 3.3 2.8
2015-Jan-30 18:06 330 17 gusting 24 3.3 2.8
2015-Jan-30 18:00 3.3 2.8
2015-Jan-30 17:54 341 18 gusting 24 2.8
2015-Jan-30 17:48 345 20 gusting 31 2.8
2015-Jan-30 17:36 3.9 2.8
2015-Jan-30 17:30 346 14 gusting 20 2.8
2015-Jan-30 17:24 3.3 2.8
2015-Jan-30 17:18 3.9 2.8
2015-Jan-30 17:12 3.9 2.8
2015-Jan-30 17:06 3.9 2.8
2015-Jan-30 17:00 3.9 2.8
2015-Jan-30 16:54 5.0 2.8
2015-Jan-30 16:48 325 14 gusting 19 5.0 2.8
2015-Jan-30 16:36 333 12 gusting 15 2.8
2015-Jan-30 16:30 338 14 gusting 19 2.8
2015-Jan-30 16:24 336 11 gusting 16 5.0 2.8
2015-Jan-30 16:18 5.0 2.8
2015-Jan-30 16:12 5.0 2.8
2015-Jan-30 16:06 334 10 gusting 17 5.0 2.8
2015-Jan-30 16:00 335 11 gusting 15 2.8
2015-Jan-30 15:54 5.0 2.8
2015-Jan-30 15:48 5.0 2.8
2015-Jan-30 15:36 2.8
2015-Jan-30 15:30 5.0 2.8
2015-Jan-30 15:24 328 14 gusting 21 2.8
2015-Jan-30 15:18 324 13 gusting 17 5.0 2.8
2015-Jan-30 15:12 324 12 gusting 16 2.8
2015-Jan-30 15:06 329 13 gusting 17 5.0 2.8
2015-Jan-30 15:00 327 13 gusting 17 2.8
2015-Jan-30 14:54 4.4 2.8
2015-Jan-30 14:48 4.4 2.8
2015-Jan-30 14:36 331 13 gusting 17 2.8
2015-Jan-30 14:30 4.4 2.8
2015-Jan-30 14:24 320 17 gusting 20 2.8
2015-Jan-30 14:18 324 13 gusting 17 2.2
2015-Jan-30 14:12 4.4 2.2
2015-Jan-30 14:06 334 14 gusting 20 3.9 2.2
2015-Jan-30 14:00 3.9 2.2
2015-Jan-30 13:54 3.9 2.2
2015-Jan-30 13:48 335 14 gusting 22 3.9 2.2
2015-Jan-30 13:36 4.4 2.2
2015-Jan-30 13:30 336 14 gusting 22 2.2
2015-Jan-30 13:24 4.4 2.2
2015-Jan-30 13:18 4.4 2.2
2015-Jan-30 13:12 4.4 2.2
2015-Jan-30 13:06 331 13 gusting 20 4.4 2.2
2015-Jan-30 13:00 4.4 2.2
2015-Jan-30 12:54 329 13 gusting 18 2.2
2015-Jan-30 12:48 328 13 gusting 18 4.4 2.2
2015-Jan-30 12:36 4.4 2.2
2015-Jan-30 12:30 4.4 2.2
2015-Jan-30 12:24 333 8 gusting 11 2.2
2015-Jan-30 12:18 332 7 gusting 13 4.4 2.2
2015-Jan-30 12:12 4.4 2.2
2015-Jan-30 12:06 339 6 gusting 9 4.4 2.2
2015-Jan-30 12:00 338 8 gusting 12 2.2
2015-Jan-30 11:54 5.0 2.2
2015-Jan-30 11:48 328 6 gusting 10 2.2
2015-Jan-30 11:36 2.2
2015-Jan-30 11:30 3.9 2.2
2015-Jan-30 11:24 3.9 2.2
2015-Jan-30 11:18 303 4 gusting 5 3.9 2.2
2015-Jan-30 11:12 305 3 gusting 4 2.2
2015-Jan-30 11:06 306 2 gusting 3 3.9 2.2
2015-Jan-30 11:00 292 2 gusting 3 2.2
2015-Jan-30 10:54 3.3 2.2
2015-Jan-30 10:48 284 3 gusting 3 3.9 2.2
2015-Jan-30 10:36 2.2
2015-Jan-30 10:30 3.3 2.2
2015-Jan-30 10:24 3.3 2.2
2015-Jan-30 10:18 3.3 2.2
2015-Jan-30 10:12 313 3 gusting 4 2.2
2015-Jan-30 10:06 3.9 2.2
2015-Jan-30 10:00 3.9 2.2
2015-Jan-30 09:54 3.9 2.2
2015-Jan-30 09:48 298 3 gusting 4 3.9 2.2
2015-Jan-30 09:36 2.2
2015-Jan-30 09:30 4.4 2.2
2015-Jan-30 09:24 4.4 2.2
2015-Jan-30 09:18 4.4 2.2
2015-Jan-30 09:12 323 4 gusting 5 2.2
2015-Jan-30 09:06 324 3 gusting 6 4.4 2.2
2015-Jan-30 09:00 314 6 gusting 9 2.2
2015-Jan-30 08:54 4.4 2.2
2015-Jan-30 08:48 339 4 gusting 6 4.4 2.2
2015-Jan-30 08:36 5.0 2.2
2015-Jan-30 08:30 274 6 gusting 7 2.2
2015-Jan-30 08:24 271 7 gusting 9 2.2
2015-Jan-30 08:18 272 8 gusting 10 5.0 2.2
2015-Jan-30 08:12 269 8 gusting 9 2.2
2015-Jan-30 08:06 263 8 gusting 12 5.0 2.2
2015-Jan-30 08:00 266 9 gusting 11 2.2
2015-Jan-30 07:54 257 10 gusting 14 2.2
2015-Jan-30 07:48 249 12 gusting 13 2.2
2015-Jan-30 07:36 252 13 gusting 16 2.2
2015-Jan-30 07:30 5.6 2.2
2015-Jan-30 07:24 5.6 2.2
2015-Jan-30 07:18 241 13 gusting 17 5.6 2.2
2015-Jan-30 07:12 240 11 gusting 13 5.6 2.2
2015-Jan-30 07:06 2.2
2015-Jan-30 07:00 5.6 2.2
2015-Jan-30 06:54 234 14 gusting 18 2.2
2015-Jan-30 06:48 5.6 2.2
2015-Jan-30 06:36 5.6 2.2
2015-Jan-30 06:30 232 15 gusting 20 2.2
2015-Jan-30 06:24 5.6 2.2
2015-Jan-30 06:18 232 14 gusting 19 5.6 2.2
2015-Jan-30 06:12 5.6 2.2
2015-Jan-30 06:06 227 13 gusting 16 5.6 2.2
2015-Jan-30 06:00 226 13 gusting 15 2.2
2015-Jan-30 05:54 5.6 2.2
2015-Jan-30 05:48 237 14 gusting 18 5.6 2.2
2015-Jan-30 05:30 220 16 gusting 23 2.2
2015-Jan-30 05:24 217 16 gusting 19 2.2
2015-Jan-30 05:18 229 15 gusting 19 2.2
2015-Jan-30 05:12 5.6 2.2
2015-Jan-30 05:06 217 16 gusting 22 2.2
2015-Jan-30 05:00 217 15 gusting 18 2.2
2015-Jan-30 04:54 218 14 gusting 17 2.2
2015-Jan-30 04:48 216 15 gusting 19 5.0 2.2
2015-Jan-30 04:36 2.2
2015-Jan-30 04:30 5.0 2.2
2015-Jan-30 04:24 5.0 2.2
2015-Jan-30 04:18 218 14 gusting 19 5.0 2.2
2015-Jan-30 04:12 4.4 2.2
2015-Jan-30 04:06 4.4 2.2
2015-Jan-30 04:00 4.4 2.2
2015-Jan-30 03:54 4.4 2.2
2015-Jan-30 03:48 4.4 2.2
2015-Jan-30 03:30 210 14 gusting 17 2.2
2015-Jan-30 03:24 211 13 gusting 16 2.2
2015-Jan-30 03:18 212 13 gusting 16 3.9 2.2
2015-Jan-30 03:12 3.9 2.2
2015-Jan-30 03:06 205 13 gusting 17 3.9 2.2
2015-Jan-30 03:00 3.9 2.2
2015-Jan-30 02:54 200 11 gusting 13 2.2
2015-Jan-30 02:48 199 12 gusting 14 3.9 2.2
2015-Jan-30 02:36 2.2
2015-Jan-30 02:30 3.3 2.2
2015-Jan-30 02:24 3.3 2.2
2015-Jan-30 02:18 198 9 gusting 10 2.2
2015-Jan-30 02:12 3.3 2.2
2015-Jan-30 02:06 188 9 gusting 12 2.2
2015-Jan-30 02:00 190 8 gusting 9 2.2
2015-Jan-30 01:54 3.3 2.2
2015-Jan-30 01:48 198 8 gusting 9 3.3 2.2
2015-Jan-30 01:30 186 7 gusting 9 2.2
2015-Jan-30 01:24 2.8 2.2
2015-Jan-30 01:18 186 6 gusting 7 2.2
2015-Jan-30 01:12 2.8 2.2
2015-Jan-30 01:06 2.8 2.2
2015-Jan-30 01:00 2.8 2.2
2015-Jan-30 00:54 2.8 2.2
2015-Jan-30 00:48 188 8 gusting 10 2.2
2015-Jan-30 00:36 2.8 2.2
2015-Jan-30 00:30 2.8 2.2
2015-Jan-30 00:24 174 5 gusting 6 2.2
2015-Jan-30 00:18 164 6 gusting 8 2.8 2.2
2015-Jan-30 00:12 158 6 gusting 7 2.2
2015-Jan-30 00:06 165 6 gusting 7 2.2 2.2
2015-Jan-30 00:00 2.2 2.2
2015-Jan-29 23:48 2.2
2015-Jan-29 23:30 154 6 gusting 8 2.2
2015-Jan-29 23:24 163 6 gusting 6 2.2
2015-Jan-29 23:18 146 6 gusting 9 2.8 2.2
2015-Jan-29 23:12 146 7 gusting 9 2.2
2015-Jan-29 23:06 167 7 gusting 9 2.2
2015-Jan-29 23:00 178 6 gusting 8 2.2
2015-Jan-29 22:54 2.8 2.2
2015-Jan-29 22:48 189 7 gusting 10 2.8 2.2
2015-Jan-29 22:36 2.2
2015-Jan-29 22:30 2.8 2.2
2015-Jan-29 22:24 2.8 2.2
2015-Jan-29 22:18 183 7 gusting 9 2.8 2.2
2015-Jan-29 22:12 2.8 2.2
2015-Jan-29 22:06 171 7 gusting 10 2.2
2015-Jan-29 22:00 2.8 2.2
2015-Jan-29 21:54 173 7 gusting 10 2.2
2015-Jan-29 21:48 166 9 gusting 11 2.2
2015-Jan-29 21:36 2.2
2015-Jan-29 21:30 3.3 2.2
2015-Jan-29 21:24 176 8 gusting 10 2.2
2015-Jan-29 21:18 172 9 gusting 10 3.3 2.2
2015-Jan-29 21:12 3.3 2.2
2015-Jan-29 21:06 182 8 gusting 10 2.2
2015-Jan-29 21:00 3.3 2.2
2015-Jan-29 20:54 178 7 gusting 9 2.2
2015-Jan-29 20:48 3.3 2.2
2015-Jan-29 20:30 193 8 gusting 10 2.2
2015-Jan-29 20:24 3.9 2.2
2015-Jan-29 20:18 202 8 gusting 10 3.3 2.2
2015-Jan-29 20:12 196 9 gusting 12 2.2
2015-Jan-29 20:06 3.3 2.2
2015-Jan-29 20:00 3.3 2.2
2015-Jan-29 19:54 181 9 gusting 11 2.2
2015-Jan-29 19:48 184 8 gusting 9 3.3 2.2
2015-Jan-29 19:36 2.2
2015-Jan-29 19:30 3.3 2.2
2015-Jan-29 19:24 2.8 2.2
2015-Jan-29 19:18 185 8 gusting 10 2.2
2015-Jan-29 19:12 190 7 gusting 8 2.2
2015-Jan-29 19:06 197 7 gusting 9 2.8 2.2
2015-Jan-29 19:00 2.8 2.2
2015-Jan-29 18:54 2.8 2.2
2015-Jan-29 18:48 162 8 gusting 10 2.8 1.7
2015-Jan-29 18:36 1.7
2015-Jan-29 18:30 2.2 1.7
2015-Jan-29 18:24 2.2 1.7
2015-Jan-29 18:18 176 6 gusting 8 1.7
2015-Jan-29 18:12 172 4 gusting 6 1.7
2015-Jan-29 18:06 182 4 gusting 5 1.7
2015-Jan-29 18:00 179 6 gusting 7 1.7
2015-Jan-29 17:54 183 6 gusting 8 1.7
2015-Jan-29 17:48 183 6 gusting 7 1.7 1.7
2015-Jan-29 17:30 179 6 gusting 7 1.7
2015-Jan-29 17:24 181 7 gusting 9 1.7
2015-Jan-29 17:18 177 6 gusting 7 1.1 1.7
2015-Jan-29 17:12 1.1 1.7
2015-Jan-29 17:06 1.1 1.7
2015-Jan-29 17:00 1.1 1.7
2015-Jan-29 16:54 1.1 1.7
2015-Jan-29 16:48 1.1 1.7
2015-Jan-29 16:36 1.7
2015-Jan-29 16:30 0.6 1.7
2015-Jan-29 16:24 179 6 gusting 6 0.6 1.7
2015-Jan-29 16:18 1.7
2015-Jan-29 16:12 0.6 1.7
2015-Jan-29 16:06 0.6 1.7
2015-Jan-29 16:00 186 4 gusting 6 1.7
2015-Jan-29 15:54 0.6 1.7
2015-Jan-29 15:48 162 4 gusting 5 0.6 1.7
2015-Jan-29 15:30 122 7 gusting 8 1.7
2015-Jan-29 15:24 -0.0 1.7
2015-Jan-29 15:18 125 7 gusting 9 -0.0 1.7
2015-Jan-29 15:12 -0.0 1.7
2015-Jan-29 15:06 129 7 gusting 7 1.7
2015-Jan-29 15:00 134 7 gusting 9 1.7
2015-Jan-29 14:54 128 8 gusting 9 1.7
2015-Jan-29 14:48 118 7 gusting 7 1.7
2015-Jan-29 14:36 1.7
2015-Jan-29 14:30 -0.0 1.7
2015-Jan-29 14:24 -0.0 1.7
2015-Jan-29 14:18 111 4 gusting 6 1.7
2015-Jan-29 14:12 112 6 gusting 7 1.7
2015-Jan-29 14:06 100 6 gusting 8 1.7
2015-Jan-29 14:00 -0.6 1.7
2015-Jan-29 13:54 101 6 gusting 6 1.7
2015-Jan-29 13:48 083 4 gusting 5 1.7
2015-Jan-29 13:36 -0.6 1.7
2015-Jan-29 13:30 -1.1 1.7
2015-Jan-29 13:24 179 1.7
2015-Jan-29 13:18 196 0 gusting 1 -1.7 1.7
2015-Jan-29 13:12 -1.7 1.7
2015-Jan-29 13:06 184 0 gusting 1 -1.1 1.7
2015-Jan-29 13:00 215 1 gusting 1 1.7